sensor_id;sensor_type;location;lat;lon;timestamp;temperature;humidity
2839;DHT22;1427;48.510;9.060;2023-05-10T00:01:18;14.30;99.90
2839;DHT22;1427;48.510;9.060;2023-05-10T00:03:46;14.30;99.90
2839;DHT22;1427;48.510;9.060;2023-05-10T00:06:14;14.10;99.90
2839;DHT22;1427;48.510;9.060;2023-05-10T00:08:43;14.10;99.90
2839;DHT22;1427;48.510;9.060;2023-05-10T00:11:11;14.00;99.90
2839;DHT22;1427;48.510;9.060;2023-05-10T00:13:40;14.00;99.90
2839;DHT22;1427;48.510;9.060;2023-05-10T00:16:09;14.10;99.90
2839;DHT22;1427;48.510;9.060;2023-05-10T00:18:40;14.00;99.90
2839;DHT22;1427;48.510;9.060;2023-05-10T00:21:08;14.00;99.90
2839;DHT22;1427;48.510;9.060;2023-05-10T00:23:35;14.00;99.90
2839;DHT22;1427;48.510;9.060;2023-05-10T00:26:04;14.10;99.90
2839;DHT22;1427;48.510;9.060;2023-05-10T00:28:32;14.10;99.90
2839;DHT22;1427;48.510;9.060;2023-05-10T00:31:00;14.10;99.90
2839;DHT22;1427;48.510;9.060;2023-05-10T00:33:29;14.10;99.90
2839;DHT22;1427;48.510;9.060;2023-05-10T00:35:57;14.00;99.90
2839;DHT22;1427;48.510;9.060;2023-05-10T00:38:25;13.90;99.90
2839;DHT22;1427;48.510;9.060;2023-05-10T00:40:54;13.90;99.90
2839;DHT22;1427;48.510;9.060;2023-05-10T00:43:22;14.00;99.90
2839;DHT22;1427;48.510;9.060;2023-05-10T00:45:50;13.90;99.90
2839;DHT22;1427;48.510;9.060;2023-05-10T00:48:18;13.90;99.90
2839;DHT22;1427;48.510;9.060;2023-05-10T00:50:48;13.90;99.90
2839;DHT22;1427;48.510;9.060;2023-05-10T00:53:16;13.90;99.90
2839;DHT22;1427;48.510;9.060;2023-05-10T00:55:44;13.90;99.90
2839;DHT22;1427;48.510;9.060;2023-05-10T00:58:13;13.90;99.90
2839;DHT22;1427;48.510;9.060;2023-05-10T01:00:41;13.80;99.90
2839;DHT22;1427;48.510;9.060;2023-05-10T01:03:10;13.70;99.90
2839;DHT22;1427;48.510;9.060;2023-05-10T01:05:38;13.70;99.90
2839;DHT22;1427;48.510;9.060;2023-05-10T01:08:08;13.70;99.90
2839;DHT22;1427;48.510;9.060;2023-05-10T01:10:36;13.70;99.90
2839;DHT22;1427;48.510;9.060;2023-05-10T01:13:04;13.70;99.90
2839;DHT22;1427;48.510;9.060;2023-05-10T01:15:32;13.60;99.90
2839;DHT22;1427;48.510;9.060;2023-05-10T01:18:00;13.60;99.90
2839;DHT22;1427;48.510;9.060;2023-05-10T01:21:03;13.60;99.90
2839;DHT22;1427;48.510;9.060;2023-05-10T01:23:55;13.50;99.90
2839;DHT22;1427;48.510;9.060;2023-05-10T01:30:01;13.60;99.90
2839;DHT22;1427;48.510;9.060;2023-05-10T01:32:54;13.50;99.90
2839;DHT22;1427;48.510;9.060;2023-05-10T01:35:30;13.50;99.90
2839;DHT22;1427;48.510;9.060;2023-05-10T01:38:12;13.60;99.90
2839;DHT22;1427;48.510;9.060;2023-05-10T01:40:48;13.60;99.90
2839;DHT22;1427;48.510;9.060;2023-05-10T01:43:24;13.60;99.90
2839;DHT22;1427;48.510;9.060;2023-05-10T01:46:00;13.60;99.90
2839;DHT22;1427;48.510;9.060;2023-05-10T01:48:39;13.70;99.90
2839;DHT22;1427;48.510;9.060;2023-05-10T01:51:11;13.60;99.90
2839;DHT22;1427;48.510;9.060;2023-05-10T01:53:39;13.60;99.90
2839;DHT22;1427;48.510;9.060;2023-05-10T01:56:08;13.50;99.90
2839;DHT22;1427;48.510;9.060;2023-05-10T01:58:39;13.50;99.90
2839;DHT22;1427;48.510;9.060;2023-05-10T02:01:10;13.60;99.90
2839;DHT22;1427;48.510;9.060;2023-05-10T02:03:41;13.30;99.90
2839;DHT22;1427;48.510;9.060;2023-05-10T02:06:11;13.50;99.90
2839;DHT22;1427;48.510;9.060;2023-05-10T02:08:41;13.50;99.90
2839;DHT22;1427;48.510;9.060;2023-05-10T02:11:11;13.50;99.90
2839;DHT22;1427;48.510;9.060;2023-05-10T02:13:41;13.40;99.90
2839;DHT22;1427;48.510;9.060;2023-05-10T02:16:10;13.40;99.90
2839;DHT22;1427;48.510;9.060;2023-05-10T02:18:41;13.40;99.90
2839;DHT22;1427;48.510;9.060;2023-05-10T02:21:10;13.30;99.90
2839;DHT22;1427;48.510;9.060;2023-05-10T02:23:39;13.30;99.90
2839;DHT22;1427;48.510;9.060;2023-05-10T02:26:08;13.30;99.90
2839;DHT22;1427;48.510;9.060;2023-05-10T02:28:36;13.30;99.90
2839;DHT22;1427;48.510;9.060;2023-05-10T02:31:05;13.30;99.90
2839;DHT22;1427;48.510;9.060;2023-05-10T02:33:37;13.20;99.90
2839;DHT22;1427;48.510;9.060;2023-05-10T02:36:09;13.20;99.90
2839;DHT22;1427;48.510;9.060;2023-05-10T02:38:37;13.20;99.90
2839;DHT22;1427;48.510;9.060;2023-05-10T02:41:08;13.10;99.90
2839;DHT22;1427;48.510;9.060;2023-05-10T02:43:38;13.10;99.90
2839;DHT22;1427;48.510;9.060;2023-05-10T02:46:07;13.10;99.90
2839;DHT22;1427;48.510;9.060;2023-05-10T02:48:35;13.10;99.90
2839;DHT22;1427;48.510;9.060;2023-05-10T02:51:08;13.00;99.90
2839;DHT22;1427;48.510;9.060;2023-05-10T02:53:40;13.10;99.90
2839;DHT22;1427;48.510;9.060;2023-05-10T02:56:13;13.10;99.90
2839;DHT22;1427;48.510;9.060;2023-05-10T02:58:42;13.00;99.90
2839;DHT22;1427;48.510;9.060;2023-05-10T03:01:10;13.00;99.90
2839;DHT22;1427;48.510;9.060;2023-05-10T03:03:38;13.00;99.90
2839;DHT22;1427;48.510;9.060;2023-05-10T03:06:07;12.90;99.90
2839;DHT22;1427;48.510;9.060;2023-05-10T03:08:36;13.00;99.90
2839;DHT22;1427;48.510;9.060;2023-05-10T03:11:21;13.00;99.90
2839;DHT22;1427;48.510;9.060;2023-05-10T03:13:56;13.00;99.90
2839;DHT22;1427;48.510;9.060;2023-05-10T03:16:35;13.10;99.90
2839;DHT22;1427;48.510;9.060;2023-05-10T03:19:14;13.10;99.90
2839;DHT22;1427;48.510;9.060;2023-05-10T03:21:49;13.20;99.90
2839;DHT22;1427;48.510;9.060;2023-05-10T03:24:21;13.20;99.90
2839;DHT22;1427;48.510;9.060;2023-05-10T03:26:54;13.20;99.90
2839;DHT22;1427;48.510;9.060;2023-05-10T03:29:25;13.20;99.90
2839;DHT22;1427;48.510;9.060;2023-05-10T03:31:53;13.20;99.90
2839;DHT22;1427;48.510;9.060;2023-05-10T03:34:23;13.20;99.90
2839;DHT22;1427;48.510;9.060;2023-05-10T03:36:51;13.10;99.90
2839;DHT22;1427;48.510;9.060;2023-05-10T03:39:20;13.00;99.90
2839;DHT22;1427;48.510;9.060;2023-05-10T03:41:48;13.10;99.90
2839;DHT22;1427;48.510;9.060;2023-05-10T03:44:17;13.30;99.90
2839;DHT22;1427;48.510;9.060;2023-05-10T03:46:45;13.10;99.90
2839;DHT22;1427;48.510;9.060;2023-05-10T03:49:13;13.00;99.90
2839;DHT22;1427;48.510;9.060;2023-05-10T03:51:41;13.10;99.90
2839;DHT22;1427;48.510;9.060;2023-05-10T03:54:09;13.10;99.90
2839;DHT22;1427;48.510;9.060;2023-05-10T03:56:38;13.10;99.90
2839;DHT22;1427;48.510;9.060;2023-05-10T03:59:06;13.10;99.90
2839;DHT22;1427;48.510;9.060;2023-05-10T04:01:35;13.20;99.90
2839;DHT22;1427;48.510;9.060;2023-05-10T04:04:03;13.20;99.90
2839;DHT22;1427;48.510;9.060;2023-05-10T04:06:31;13.30;99.90
2839;DHT22;1427;48.510;9.060;2023-05-10T04:08:59;13.20;99.90
2839;DHT22;1427;48.510;9.060;2023-05-10T04:11:30;13.10;99.90
2839;DHT22;1427;48.510;9.060;2023-05-10T04:14:00;13.10;99.90
2839;DHT22;1427;48.510;9.060;2023-05-10T04:16:28;13.10;99.90
2839;DHT22;1427;48.510;9.060;2023-05-10T04:18:56;13.20;99.90
2839;DHT22;1427;48.510;9.060;2023-05-10T04:21:24;13.10;99.90
2839;DHT22;1427;48.510;9.060;2023-05-10T04:23:52;13.20;99.90
2839;DHT22;1427;48.510;9.060;2023-05-10T04:26:20;13.20;99.90
2839;DHT22;1427;48.510;9.060;2023-05-10T04:28:48;13.20;99.90
2839;DHT22;1427;48.510;9.060;2023-05-10T04:31:18;13.20;99.90
2839;DHT22;1427;48.510;9.060;2023-05-10T04:33:46;13.20;99.90
2839;DHT22;1427;48.510;9.060;2023-05-10T04:36:14;13.20;99.90
2839;DHT22;1427;48.510;9.060;2023-05-10T04:38:42;13.10;99.90
2839;DHT22;1427;48.510;9.060;2023-05-10T04:41:10;13.00;99.90
2839;DHT22;1427;48.510;9.060;2023-05-10T04:43:39;12.90;99.90
2839;DHT22;1427;48.510;9.060;2023-05-10T04:46:07;12.90;99.90
2839;DHT22;1427;48.510;9.060;2023-05-10T04:48:36;12.90;99.90
2839;DHT22;1427;48.510;9.060;2023-05-10T04:51:04;13.00;99.90
2839;DHT22;1427;48.510;9.060;2023-05-10T04:53:33;12.90;99.90
2839;DHT22;1427;48.510;9.060;2023-05-10T04:56:01;12.90;99.90
2839;DHT22;1427;48.510;9.060;2023-05-10T04:58:29;12.90;99.90
2839;DHT22;1427;48.510;9.060;2023-05-10T05:00:57;12.90;99.90
2839;DHT22;1427;48.510;9.060;2023-05-10T05:03:25;13.00;99.90
2839;DHT22;1427;48.510;9.060;2023-05-10T05:05:54;12.90;99.90
2839;DHT22;1427;48.510;9.060;2023-05-10T05:08:22;12.90;99.90
2839;DHT22;1427;48.510;9.060;2023-05-10T05:10:50;12.90;99.90
2839;DHT22;1427;48.510;9.060;2023-05-10T05:13:18;12.90;99.90
2839;DHT22;1427;48.510;9.060;2023-05-10T05:15:46;12.90;99.90
2839;DHT22;1427;48.510;9.060;2023-05-10T05:18:15;13.00;99.90
2839;DHT22;1427;48.510;9.060;2023-05-10T05:20:43;13.00;99.90
2839;DHT22;1427;48.510;9.060;2023-05-10T05:23:12;13.00;99.90
2839;DHT22;1427;48.510;9.060;2023-05-10T05:25:40;13.00;99.90
2839;DHT22;1427;48.510;9.060;2023-05-10T05:28:08;13.10;99.90
2839;DHT22;1427;48.510;9.060;2023-05-10T05:30:36;13.10;99.90
2839;DHT22;1427;48.510;9.060;2023-05-10T05:33:04;13.20;99.90
2839;DHT22;1427;48.510;9.060;2023-05-10T05:35:33;13.20;99.90
2839;DHT22;1427;48.510;9.060;2023-05-10T05:38:01;13.20;99.90
2839;DHT22;1427;48.510;9.060;2023-05-10T05:40:30;13.20;99.90
2839;DHT22;1427;48.510;9.060;2023-05-10T05:42:58;13.20;99.90
2839;DHT22;1427;48.510;9.060;2023-05-10T05:45:26;13.20;99.90
2839;DHT22;1427;48.510;9.060;2023-05-10T05:47:55;13.20;99.90
2839;DHT22;1427;48.510;9.060;2023-05-10T05:50:23;13.20;99.90
2839;DHT22;1427;48.510;9.060;2023-05-10T05:52:51;13.10;99.90
2839;DHT22;1427;48.510;9.060;2023-05-10T05:55:19;13.10;99.90
2839;DHT22;1427;48.510;9.060;2023-05-10T05:57:49;13.20;99.90
2839;DHT22;1427;48.510;9.060;2023-05-10T06:00:17;13.00;99.90
2839;DHT22;1427;48.510;9.060;2023-05-10T06:02:45;13.00;99.90
2839;DHT22;1427;48.510;9.060;2023-05-10T06:05:13;13.00;99.90
2839;DHT22;1427;48.510;9.060;2023-05-10T06:07:42;13.00;99.90
2839;DHT22;1427;48.510;9.060;2023-05-10T06:10:10;13.00;99.90
2839;DHT22;1427;48.510;9.060;2023-05-10T06:12:38;13.10;99.90
2839;DHT22;1427;48.510;9.060;2023-05-10T06:15:09;13.20;99.90
2839;DHT22;1427;48.510;9.060;2023-05-10T06:17:37;13.20;99.90
2839;DHT22;1427;48.510;9.060;2023-05-10T06:20:07;13.20;99.90
2839;DHT22;1427;48.510;9.060;2023-05-10T06:22:35;13.30;99.90
2839;DHT22;1427;48.510;9.060;2023-05-10T06:25:04;13.30;99.90
2839;DHT22;1427;48.510;9.060;2023-05-10T06:27:32;13.30;99.90
2839;DHT22;1427;48.510;9.060;2023-05-10T06:30:01;13.30;99.90
2839;DHT22;1427;48.510;9.060;2023-05-10T06:32:40;13.40;99.90
2839;DHT22;1427;48.510;9.060;2023-05-10T06:35:09;13.40;99.90
2839;DHT22;1427;48.510;9.060;2023-05-10T06:37:37;13.50;99.90
2839;DHT22;1427;48.510;9.060;2023-05-10T06:40:06;13.50;99.90
2839;DHT22;1427;48.510;9.060;2023-05-10T06:42:36;13.60;99.90
2839;DHT22;1427;48.510;9.060;2023-05-10T06:45:05;13.60;99.90
2839;DHT22;1427;48.510;9.060;2023-05-10T06:47:33;13.60;99.90
2839;DHT22;1427;48.510;9.060;2023-05-10T06:50:07;13.60;99.90
2839;DHT22;1427;48.510;9.060;2023-05-10T06:52:35;13.60;99.90
2839;DHT22;1427;48.510;9.060;2023-05-10T06:55:04;13.60;99.90
2839;DHT22;1427;48.510;9.060;2023-05-10T06:57:32;13.70;99.90
2839;DHT22;1427;48.510;9.060;2023-05-10T07:00:01;13.80;99.90
2839;DHT22;1427;48.510;9.060;2023-05-10T07:02:30;13.80;99.90
2839;DHT22;1427;48.510;9.060;2023-05-10T07:04:59;13.70;99.90
2839;DHT22;1427;48.510;9.060;2023-05-10T07:07:30;13.70;99.90
2839;DHT22;1427;48.510;9.060;2023-05-10T07:09:58;13.70;99.90
2839;DHT22;1427;48.510;9.060;2023-05-10T07:12:27;13.70;99.90
2839;DHT22;1427;48.510;9.060;2023-05-10T07:14:55;13.70;99.90
2839;DHT22;1427;48.510;9.060;2023-05-10T07:17:23;13.80;99.90
2839;DHT22;1427;48.510;9.060;2023-05-10T07:19:51;13.70;99.90
2839;DHT22;1427;48.510;9.060;2023-05-10T07:22:19;13.70;99.90
2839;DHT22;1427;48.510;9.060;2023-05-10T07:24:48;13.80;99.90
2839;DHT22;1427;48.510;9.060;2023-05-10T07:27:16;13.70;99.90
2839;DHT22;1427;48.510;9.060;2023-05-10T07:29:44;13.70;99.90
2839;DHT22;1427;48.510;9.060;2023-05-10T07:32:12;13.60;99.90
2839;DHT22;1427;48.510;9.060;2023-05-10T07:34:41;13.60;99.90
2839;DHT22;1427;48.510;9.060;2023-05-10T07:37:09;13.70;99.90
2839;DHT22;1427;48.510;9.060;2023-05-10T07:39:38;13.80;99.90
2839;DHT22;1427;48.510;9.060;2023-05-10T07:42:07;13.80;99.90
2839;DHT22;1427;48.510;9.060;2023-05-10T07:44:35;13.80;99.90
2839;DHT22;1427;48.510;9.060;2023-05-10T07:47:03;13.90;99.90
2839;DHT22;1427;48.510;9.060;2023-05-10T07:49:31;14.00;99.90
2839;DHT22;1427;48.510;9.060;2023-05-10T07:51:59;14.10;99.90
2839;DHT22;1427;48.510;9.060;2023-05-10T07:54:27;14.10;99.90
2839;DHT22;1427;48.510;9.060;2023-05-10T07:56:55;14.10;99.90
2839;DHT22;1427;48.510;9.060;2023-05-10T07:59:24;14.10;99.90
2839;DHT22;1427;48.510;9.060;2023-05-10T08:01:52;14.10;99.90
2839;DHT22;1427;48.510;9.060;2023-05-10T08:04:20;14.20;99.90
2839;DHT22;1427;48.510;9.060;2023-05-10T08:06:49;14.40;99.90
2839;DHT22;1427;48.510;9.060;2023-05-10T08:09:17;14.40;99.90
2839;DHT22;1427;48.510;9.060;2023-05-10T08:11:50;14.50;99.90
2839;DHT22;1427;48.510;9.060;2023-05-10T08:14:18;14.60;99.90
2839;DHT22;1427;48.510;9.060;2023-05-10T08:16:48;14.70;99.90
2839;DHT22;1427;48.510;9.060;2023-05-10T08:19:15;14.80;99.90
2839;DHT22;1427;48.510;9.060;2023-05-10T08:21:45;14.80;99.90
2839;DHT22;1427;48.510;9.060;2023-05-10T08:24:13;15.00;99.90
2839;DHT22;1427;48.510;9.060;2023-05-10T08:26:41;15.00;99.90
2839;DHT22;1427;48.510;9.060;2023-05-10T08:29:09;15.10;99.90
2839;DHT22;1427;48.510;9.060;2023-05-10T08:31:37;15.10;99.90
2839;DHT22;1427;48.510;9.060;2023-05-10T08:34:07;15.20;99.90
2839;DHT22;1427;48.510;9.060;2023-05-10T08:36:35;15.30;99.90
2839;DHT22;1427;48.510;9.060;2023-05-10T08:39:03;15.30;99.90
2839;DHT22;1427;48.510;9.060;2023-05-10T08:41:39;15.20;99.90
2839;DHT22;1427;48.510;9.060;2023-05-10T08:44:08;15.30;99.90
2839;DHT22;1427;48.510;9.060;2023-05-10T08:46:37;15.40;99.90
2839;DHT22;1427;48.510;9.060;2023-05-10T08:49:13;15.50;99.90
2839;DHT22;1427;48.510;9.060;2023-05-10T08:51:46;15.50;99.90
2839;DHT22;1427;48.510;9.060;2023-05-10T08:54:14;15.40;99.90
2839;DHT22;1427;48.510;9.060;2023-05-10T08:56:43;15.40;99.90
2839;DHT22;1427;48.510;9.060;2023-05-10T08:59:13;15.60;99.90
2839;DHT22;1427;48.510;9.060;2023-05-10T09:01:43;15.70;99.90
2839;DHT22;1427;48.510;9.060;2023-05-10T09:04:14;15.70;99.90
2839;DHT22;1427;48.510;9.060;2023-05-10T09:06:42;15.60;99.90
2839;DHT22;1427;48.510;9.060;2023-05-10T09:09:10;15.60;99.90
2839;DHT22;1427;48.510;9.060;2023-05-10T09:11:38;15.70;99.90
2839;DHT22;1427;48.510;9.060;2023-05-10T09:14:06;15.80;99.90
2839;DHT22;1427;48.510;9.060;2023-05-10T09:16:36;15.90;99.90
2839;DHT22;1427;48.510;9.060;2023-05-10T09:19:04;15.90;99.90
2839;DHT22;1427;48.510;9.060;2023-05-10T09:21:34;15.90;99.90
2839;DHT22;1427;48.510;9.060;2023-05-10T09:24:03;15.80;99.90
2839;DHT22;1427;48.510;9.060;2023-05-10T09:26:32;15.80;99.90
2839;DHT22;1427;48.510;9.060;2023-05-10T09:29:02;15.90;99.90
2839;DHT22;1427;48.510;9.060;2023-05-10T09:31:48;16.00;99.90
2839;DHT22;1427;48.510;9.060;2023-05-10T09:34:19;16.10;99.90
2839;DHT22;1427;48.510;9.060;2023-05-10T09:36:57;16.10;99.90
2839;DHT22;1427;48.510;9.060;2023-05-10T09:39:31;16.20;99.90
2839;DHT22;1427;48.510;9.060;2023-05-10T09:42:01;16.40;99.90
2839;DHT22;1427;48.510;9.060;2023-05-10T09:44:31;16.40;99.90
2839;DHT22;1427;48.510;9.060;2023-05-10T09:46:59;16.50;99.90
2839;DHT22;1427;48.510;9.060;2023-05-10T09:49:28;16.40;99.90
2839;DHT22;1427;48.510;9.060;2023-05-10T09:52:04;16.40;99.90
2839;DHT22;1427;48.510;9.060;2023-05-10T09:54:33;16.20;99.90
2839;DHT22;1427;48.510;9.060;2023-05-10T09:57:01;16.10;99.90
2839;DHT22;1427;48.510;9.060;2023-05-10T09:59:33;15.80;99.90
2839;DHT22;1427;48.510;9.060;2023-05-10T10:02:02;15.30;99.90
2839;DHT22;1427;48.510;9.060;2023-05-10T10:04:30;15.00;99.90
2839;DHT22;1427;48.510;9.060;2023-05-10T10:06:59;14.90;99.90
2839;DHT22;1427;48.510;9.060;2023-05-10T10:09:29;14.70;99.90
2839;DHT22;1427;48.510;9.060;2023-05-10T10:11:58;14.50;99.90
2839;DHT22;1427;48.510;9.060;2023-05-10T10:14:26;14.50;99.90
2839;DHT22;1427;48.510;9.060;2023-05-10T10:16:55;14.40;99.90
2839;DHT22;1427;48.510;9.060;2023-05-10T10:19:34;14.40;99.90
2839;DHT22;1427;48.510;9.060;2023-05-10T10:22:04;14.40;99.90
2839;DHT22;1427;48.510;9.060;2023-05-10T10:24:34;14.60;99.90
2839;DHT22;1427;48.510;9.060;2023-05-10T10:27:09;14.80;99.90
2839;DHT22;1427;48.510;9.060;2023-05-10T10:29:50;14.80;99.90
2839;DHT22;1427;48.510;9.060;2023-05-10T10:32:25;15.00;99.90
2839;DHT22;1427;48.510;9.060;2023-05-10T10:34:55;14.90;99.90
2839;DHT22;1427;48.510;9.060;2023-05-10T10:37:24;15.10;99.90
2839;DHT22;1427;48.510;9.060;2023-05-10T10:40:28;15.20;99.90
2839;DHT22;1427;48.510;9.060;2023-05-10T10:43:21;15.30;99.90
2839;DHT22;1427;48.510;9.060;2023-05-10T10:46:11;15.40;99.90
2839;DHT22;1427;48.510;9.060;2023-05-10T10:48:43;15.70;99.90
2839;DHT22;1427;48.510;9.060;2023-05-10T10:51:15;15.80;99.90
2839;DHT22;1427;48.510;9.060;2023-05-10T10:53:43;16.10;99.90
2839;DHT22;1427;48.510;9.060;2023-05-10T10:56:13;16.10;99.90
2839;DHT22;1427;48.510;9.060;2023-05-10T10:58:49;16.10;99.90
2839;DHT22;1427;48.510;9.060;2023-05-10T11:01:18;16.30;99.90
2839;DHT22;1427;48.510;9.060;2023-05-10T11:04:18;16.30;99.90
2839;DHT22;1427;48.510;9.060;2023-05-10T11:06:47;16.20;99.90
2839;DHT22;1427;48.510;9.060;2023-05-10T11:09:17;16.10;99.90
2839;DHT22;1427;48.510;9.060;2023-05-10T11:11:52;15.90;99.90
2839;DHT22;1427;48.510;9.060;2023-05-10T11:14:22;15.70;99.90
2839;DHT22;1427;48.510;9.060;2023-05-10T11:16:50;15.60;99.90
2839;DHT22;1427;48.510;9.060;2023-05-10T11:19:19;15.40;99.90
2839;DHT22;1427;48.510;9.060;2023-05-10T11:21:48;15.20;99.90
2839;DHT22;1427;48.510;9.060;2023-05-10T11:24:19;15.20;99.90
2839;DHT22;1427;48.510;9.060;2023-05-10T11:26:50;15.10;99.90
2839;DHT22;1427;48.510;9.060;2023-05-10T11:29:18;15.00;99.90
2839;DHT22;1427;48.510;9.060;2023-05-10T11:31:47;14.90;99.90
2839;DHT22;1427;48.510;9.060;2023-05-10T11:34:24;14.90;99.90
2839;DHT22;1427;48.510;9.060;2023-05-10T11:36:53;14.90;99.90
2839;DHT22;1427;48.510;9.060;2023-05-10T11:39:25;14.80;99.90
2839;DHT22;1427;48.510;9.060;2023-05-10T11:41:55;14.80;99.90
2839;DHT22;1427;48.510;9.060;2023-05-10T11:44:23;14.80;99.90
2839;DHT22;1427;48.510;9.060;2023-05-10T11:46:52;14.80;99.90
2839;DHT22;1427;48.510;9.060;2023-05-10T11:49:20;14.90;99.90
2839;DHT22;1427;48.510;9.060;2023-05-10T11:51:51;14.80;99.90
2839;DHT22;1427;48.510;9.060;2023-05-10T11:54:19;14.60;99.90
2839;DHT22;1427;48.510;9.060;2023-05-10T11:56:47;14.40;99.90
2839;DHT22;1427;48.510;9.060;2023-05-10T11:59:16;14.50;99.90
2839;DHT22;1427;48.510;9.060;2023-05-10T12:01:45;14.60;99.90
2839;DHT22;1427;48.510;9.060;2023-05-10T12:04:13;14.70;99.90
2839;DHT22;1427;48.510;9.060;2023-05-10T12:06:42;14.80;99.90
2839;DHT22;1427;48.510;9.060;2023-05-10T12:09:10;14.90;99.90
2839;DHT22;1427;48.510;9.060;2023-05-10T12:11:39;15.10;99.90
2839;DHT22;1427;48.510;9.060;2023-05-10T12:14:10;15.10;99.90
2839;DHT22;1427;48.510;9.060;2023-05-10T12:16:40;15.10;99.90
2839;DHT22;1427;48.510;9.060;2023-05-10T12:19:09;15.10;99.90
2839;DHT22;1427;48.510;9.060;2023-05-10T12:21:37;15.00;99.90
2839;DHT22;1427;48.510;9.060;2023-05-10T12:24:08;14.90;99.90
2839;DHT22;1427;48.510;9.060;2023-05-10T12:26:37;15.00;99.90
2839;DHT22;1427;48.510;9.060;2023-05-10T12:29:13;15.00;99.90
2839;DHT22;1427;48.510;9.060;2023-05-10T12:31:54;14.90;99.90
2839;DHT22;1427;48.510;9.060;2023-05-10T12:34:24;14.90;99.90
2839;DHT22;1427;48.510;9.060;2023-05-10T12:36:53;14.80;99.90
2839;DHT22;1427;48.510;9.060;2023-05-10T12:39:21;14.60;99.90
2839;DHT22;1427;48.510;9.060;2023-05-10T12:41:50;14.60;99.90
2839;DHT22;1427;48.510;9.060;2023-05-10T12:44:20;14.40;99.90
2839;DHT22;1427;48.510;9.060;2023-05-10T12:46:48;14.50;99.90
2839;DHT22;1427;48.510;9.060;2023-05-10T12:49:17;14.40;99.90
2839;DHT22;1427;48.510;9.060;2023-05-10T12:51:46;14.40;99.90
2839;DHT22;1427;48.510;9.060;2023-05-10T12:54:19;14.60;99.90
2839;DHT22;1427;48.510;9.060;2023-05-10T12:56:50;14.80;99.90
2839;DHT22;1427;48.510;9.060;2023-05-10T12:59:18;14.90;99.90
2839;DHT22;1427;48.510;9.060;2023-05-10T13:01:46;14.90;99.90
2839;DHT22;1427;48.510;9.060;2023-05-10T13:04:14;14.90;99.90
2839;DHT22;1427;48.510;9.060;2023-05-10T13:06:43;15.10;99.90
2839;DHT22;1427;48.510;9.060;2023-05-10T13:09:11;15.30;99.90
2839;DHT22;1427;48.510;9.060;2023-05-10T13:11:39;15.50;99.90
2839;DHT22;1427;48.510;9.060;2023-05-10T13:14:07;15.40;99.90
2839;DHT22;1427;48.510;9.060;2023-05-10T13:16:35;15.50;99.90
2839;DHT22;1427;48.510;9.060;2023-05-10T13:19:03;15.70;99.90
2839;DHT22;1427;48.510;9.060;2023-05-10T13:21:31;15.70;99.90
2839;DHT22;1427;48.510;9.060;2023-05-10T13:24:01;15.50;99.90
2839;DHT22;1427;48.510;9.060;2023-05-10T13:26:29;15.40;99.90
2839;DHT22;1427;48.510;9.060;2023-05-10T13:28:57;15.40;99.90
2839;DHT22;1427;48.510;9.060;2023-05-10T13:31:26;15.40;99.90
2839;DHT22;1427;48.510;9.060;2023-05-10T13:33:55;15.70;99.90
2839;DHT22;1427;48.510;9.060;2023-05-10T13:36:23;15.60;99.90
2839;DHT22;1427;48.510;9.060;2023-05-10T13:38:51;15.60;99.90
2839;DHT22;1427;48.510;9.060;2023-05-10T13:41:21;15.70;99.90
2839;DHT22;1427;48.510;9.060;2023-05-10T13:43:50;15.70;99.90
2839;DHT22;1427;48.510;9.060;2023-05-10T13:46:18;15.90;99.90
2839;DHT22;1427;48.510;9.060;2023-05-10T13:48:46;15.90;99.90
2839;DHT22;1427;48.510;9.060;2023-05-10T13:51:14;15.80;99.90
2839;DHT22;1427;48.510;9.060;2023-05-10T13:53:42;15.80;99.90
2839;DHT22;1427;48.510;9.060;2023-05-10T13:56:11;15.60;99.90
2839;DHT22;1427;48.510;9.060;2023-05-10T13:58:40;15.60;99.90
2839;DHT22;1427;48.510;9.060;2023-05-10T14:01:09;15.80;99.90
2839;DHT22;1427;48.510;9.060;2023-05-10T14:03:38;15.90;99.90
2839;DHT22;1427;48.510;9.060;2023-05-10T14:06:07;16.00;99.90
2839;DHT22;1427;48.510;9.060;2023-05-10T14:08:35;16.10;99.90
2839;DHT22;1427;48.510;9.060;2023-05-10T14:11:04;16.00;99.90
2839;DHT22;1427;48.510;9.060;2023-05-10T14:13:32;16.00;99.90
2839;DHT22;1427;48.510;9.060;2023-05-10T14:16:02;16.10;99.90
2839;DHT22;1427;48.510;9.060;2023-05-10T14:18:30;16.20;99.90
2839;DHT22;1427;48.510;9.060;2023-05-10T14:20:58;16.20;99.90
2839;DHT22;1427;48.510;9.060;2023-05-10T14:23:26;16.40;99.90
2839;DHT22;1427;48.510;9.060;2023-05-10T14:25:55;16.40;99.90
2839;DHT22;1427;48.510;9.060;2023-05-10T14:28:24;16.40;99.90
2839;DHT22;1427;48.510;9.060;2023-05-10T14:30:52;16.30;99.90
2839;DHT22;1427;48.510;9.060;2023-05-10T14:33:21;16.50;99.90
2839;DHT22;1427;48.510;9.060;2023-05-10T14:35:50;16.50;99.90
2839;DHT22;1427;48.510;9.060;2023-05-10T14:38:18;16.50;99.90
2839;DHT22;1427;48.510;9.060;2023-05-10T14:40:46;16.40;99.90
2839;DHT22;1427;48.510;9.060;2023-05-10T14:43:14;16.70;99.90
2839;DHT22;1427;48.510;9.060;2023-05-10T14:45:43;16.70;99.90
2839;DHT22;1427;48.510;9.060;2023-05-10T14:48:12;16.70;99.90
2839;DHT22;1427;48.510;9.060;2023-05-10T14:50:44;16.80;99.90
2839;DHT22;1427;48.510;9.060;2023-05-10T14:53:13;16.70;99.90
2839;DHT22;1427;48.510;9.060;2023-05-10T14:55:42;16.70;99.90
2839;DHT22;1427;48.510;9.060;2023-05-10T14:58:10;16.70;99.90
2839;DHT22;1427;48.510;9.060;2023-05-10T15:00:38;16.70;99.90
2839;DHT22;1427;48.510;9.060;2023-05-10T15:03:07;16.70;99.90
2839;DHT22;1427;48.510;9.060;2023-05-10T15:05:36;16.60;99.90
2839;DHT22;1427;48.510;9.060;2023-05-10T15:08:06;16.70;99.90
2839;DHT22;1427;48.510;9.060;2023-05-10T15:10:34;16.60;99.90
2839;DHT22;1427;48.510;9.060;2023-05-10T15:13:03;16.60;99.90
2839;DHT22;1427;48.510;9.060;2023-05-10T15:15:31;16.60;99.90
2839;DHT22;1427;48.510;9.060;2023-05-10T15:18:00;16.50;99.90
2839;DHT22;1427;48.510;9.060;2023-05-10T15:20:28;16.40;99.90
2839;DHT22;1427;48.510;9.060;2023-05-10T15:22:56;16.40;99.90
2839;DHT22;1427;48.510;9.060;2023-05-10T15:25:25;16.40;99.90
2839;DHT22;1427;48.510;9.060;2023-05-10T15:27:54;16.40;99.90
2839;DHT22;1427;48.510;9.060;2023-05-10T15:30:22;16.40;99.90
2839;DHT22;1427;48.510;9.060;2023-05-10T15:32:50;16.40;99.90
2839;DHT22;1427;48.510;9.060;2023-05-10T15:35:19;16.40;99.90
2839;DHT22;1427;48.510;9.060;2023-05-10T15:37:47;16.40;99.90
2839;DHT22;1427;48.510;9.060;2023-05-10T15:40:16;16.40;99.90
2839;DHT22;1427;48.510;9.060;2023-05-10T15:42:45;16.30;99.90
2839;DHT22;1427;48.510;9.060;2023-05-10T15:45:13;16.30;99.90
2839;DHT22;1427;48.510;9.060;2023-05-10T15:47:42;16.40;99.90
2839;DHT22;1427;48.510;9.060;2023-05-10T15:50:11;16.50;99.90
2839;DHT22;1427;48.510;9.060;2023-05-10T15:52:39;16.50;99.90
2839;DHT22;1427;48.510;9.060;2023-05-10T15:55:08;16.50;99.90
2839;DHT22;1427;48.510;9.060;2023-05-10T15:57:39;16.40;99.90
2839;DHT22;1427;48.510;9.060;2023-05-10T16:00:11;16.40;99.90
2839;DHT22;1427;48.510;9.060;2023-05-10T16:02:39;16.40;99.90
2839;DHT22;1427;48.510;9.060;2023-05-10T16:05:09;16.30;99.90
2839;DHT22;1427;48.510;9.060;2023-05-10T16:07:38;16.30;99.90
2839;DHT22;1427;48.510;9.060;2023-05-10T16:10:09;16.00;99.90
2839;DHT22;1427;48.510;9.060;2023-05-10T16:12:37;15.80;99.90
2839;DHT22;1427;48.510;9.060;2023-05-10T16:15:09;15.70;99.90
2839;DHT22;1427;48.510;9.060;2023-05-10T16:17:37;15.60;99.90
2839;DHT22;1427;48.510;9.060;2023-05-10T16:20:07;15.60;99.90
2839;DHT22;1427;48.510;9.060;2023-05-10T16:22:35;15.40;99.90